Time;durP1;ratioP1;P1;durP2;ratioP2;P2;SDS_P1;SDS_P2;PMS_P1;PMS_P2;Temp;Humidity;BMP_temperature;BMP_pressure;BME280_temperature;BME280_humidity;BME280_pressure;Samples;Min_cycle;Max_cycle;Signal;HPM_P1;HPM_P2
2021/01/26 00:01:22;;;;;;;44.03;23.65;;;;;;;1.21;94.33;100034.19;4931282;28;20623;-58
2021/01/26 00:03:49;;;;;;;45.42;22.23;;;;;;;1.08;95.18;100038.50;4932967;28;20055;-57
2021/01/26 00:06:15;;;;;;;49.42;24.67;;;;;;;1.18;94.99;100039.06;4930736;28;20583;-58
2021/01/26 00:08:42;;;;;;;41.40;22.42;;;;;;;1.15;94.96;100048.13;4932046;28;20051;-59
2021/01/26 00:11:09;;;;;;;45.25;22.83;;;;;;;0.97;95.24;100045.47;4932065;28;20721;-58
2021/01/26 00:13:35;;;;;;;48.10;23.98;;;;;;;1.04;94.65;100051.75;4930957;28;20531;-57
2021/01/26 00:16:03;;;;;;;42.47;22.13;;;;;;;1.06;95.24;100050.16;4931764;28;20055;-58
2021/01/26 00:18:29;;;;;;;42.72;22.35;;;;;;;0.88;95.71;100048.41;4935757;28;20047;-58
2021/01/26 00:20:56;;;;;;;45.13;22.25;;;;;;;1.01;95.19;100052.44;4938624;28;20160;-56
2021/01/26 00:23:23;;;;;;;47.55;22.48;;;;;;;0.93;96.24;100048.66;4934949;28;20376;-54
2021/01/26 00:25:50;;;;;;;41.22;22.08;;;;;;;1.27;94.30;100048.78;4935566;28;20055;-56
2021/01/26 00:28:17;;;;;;;45.88;22.27;;;;;;;1.40;93.57;100052.81;4933788;28;20055;-58
2021/01/26 00:30:44;;;;;;;41.35;22.05;;;;;;;1.37;92.59;100057.69;4933153;28;20044;-58
2021/01/26 00:33:22;;;;;;;41.35;21.15;;;;;;;1.22;93.59;100055.22;4931631;28;20062;-58
2021/01/26 00:35:50;;;;;;;43.60;22.45;;;;;;;1.14;94.20;100054.81;4932191;28;20056;-57
2021/01/26 00:38:17;;;;;;;40.85;22.13;;;;;;;1.10;95.28;100054.56;4930439;28;20181;-58
2021/01/26 00:40:44;;;;;;;40.72;21.33;;;;;;;0.97;95.52;100053.03;4931994;28;20918;-56
2021/01/26 00:43:13;;;;;;;46.05;24.10;;;;;;;1.09;95.11;100058.75;4936583;28;20059;-57
2021/01/26 00:45:39;;;;;;;42.85;21.55;;;;;;;1.25;94.44;100066.34;4931362;28;20099;-59
2021/01/26 00:48:07;;;;;;;42.97;22.58;;;;;;;1.02;95.28;100067.66;4936638;28;20098;-56
2021/01/26 00:50:34;;;;;;;44.35;23.13;;;;;;;1.24;94.29;100067.13;4935205;28;20515;-58
2021/01/26 00:53:01;;;;;;;41.75;23.08;;;;;;;1.32;94.67;100066.66;4932783;28;20114;-55
2021/01/26 00:55:27;;;;;;;42.72;21.70;;;;;;;1.19;93.92;100076.09;4935051;28;20051;-56
2021/01/26 00:57:55;;;;;;;41.50;22.35;;;;;;;1.44;92.84;100069.84;4932664;28;20129;-56
2021/01/26 01:00:33;;;;;;;37.83;21.65;;;;;;;1.23;93.28;100070.44;4930872;28;20059;-57
2021/01/26 01:03:00;;;;;;;45.33;22.30;;;;;;;0.85;94.80;100073.44;4932549;28;20655;-59
2021/01/26 01:05:27;;;;;;;39.63;22.35;;;;;;;0.98;94.90;100080.88;4934592;28;20130;-58
2021/01/26 01:07:53;;;;;;;44.72;23.42;;;;;;;1.15;94.80;100080.91;4938185;28;20419;-53
2021/01/26 01:10:24;;;;;;;39.00;21.42;;;;;;;1.06;94.54;100083.78;4935502;28;20051;-54
2021/01/26 01:12:51;;;;;;;40.60;21.23;;;;;;;1.35;93.90;100087.00;4932546;28;20456;-56
2021/01/26 01:15:19;;;;;;;43.53;21.35;;;;;;;1.06;93.78;100083.78;4943862;28;20067;-58
2021/01/26 01:17:46;;;;;;;41.83;21.48;;;;;;;0.96;94.64;100084.09;4938051;28;20103;-56
2021/01/26 01:20:15;;;;;;;37.65;20.83;;;;;;;1.15;94.22;100085.94;4938481;28;20095;-56
2021/01/26 01:22:42;;;;;;;41.92;22.00;;;;;;;1.12;93.74;100081.63;4933145;28;20452;-56
2021/01/26 01:25:09;;;;;;;40.00;20.90;;;;;;;1.14;93.62;100094.28;4938208;28;20110;-55
2021/01/26 01:27:37;;;;;;;37.00;20.90;;;;;;;1.28;92.76;100086.66;4932821;28;20039;-55
2021/01/26 01:30:05;;;;;;;38.97;20.60;;;;;;;1.24;93.44;100083.91;4935623;28;20071;-58
2021/01/26 01:32:32;;;;;;;40.83;21.20;;;;;;;1.22;92.77;100086.34;4938538;28;20048;-54
2021/01/26 01:34:59;;;;;;;44.20;21.05;;;;;;;0.96;92.94;100082.44;4933650;28;20073;-58
2021/01/26 01:37:26;;;;;;;39.67;21.50;;;;;;;0.85;94.51;100092.72;4933203;28;20047;-55
2021/01/26 01:39:54;;;;;;;38.53;20.90;;;;;;;1.27;92.96;100089.97;4936052;28;20618;-59
2021/01/26 01:42:20;;;;;;;41.35;22.02;;;;;;;0.98;94.16;100082.53;4933695;28;20661;-57
2021/01/26 01:44:47;;;;;;;41.70;22.42;;;;;;;1.13;93.17;100082.47;4934772;28;20046;-57
2021/01/26 01:47:27;;;;;;;38.28;20.98;;;;;;;1.06;94.19;100082.91;4933582;28;20174;-57
2021/01/26 01:49:55;;;;;;;41.25;22.33;;;;;;;1.01;94.11;100082.69;4935810;28;20069;-56
2021/01/26 01:52:26;;;;;;;44.38;23.80;;;;;;;0.82;93.77;100082.47;4934037;28;20044;-59
2021/01/26 01:55:05;;;;;;;44.70;22.83;;;;;;;0.79;94.34;100084.81;4935912;28;20053;-58
2021/01/26 01:57:35;;;;;;;40.42;22.10;;;;;;;0.75;95.04;100084.66;4932908;28;20071;-56
2021/01/26 02:00:09;;;;;;;41.90;22.60;;;;;;;0.64;94.68;100073.13;4932950;28;20081;-56
2021/01/26 02:02:45;;;;;;;40.00;21.90;;;;;;;0.82;94.48;100083.34;4933545;28;20043;-55
2021/01/26 02:05:14;;;;;;;40.75;21.83;;;;;;;1.11;93.30;100081.50;4938114;28;20067;-55
2021/01/26 02:07:42;;;;;;;39.47;22.05;;;;;;;0.74;93.14;100080.41;4938657;28;20055;-56
2021/01/26 02:10:10;;;;;;;41.70;22.60;;;;;;;0.96;93.68;100081.56;4933980;28;20527;-57
2021/01/26 02:12:37;;;;;;;40.47;21.63;;;;;;;0.98;92.97;100078.34;4933559;28;20054;-57
2021/01/26 02:15:05;;;;;;;43.58;22.73;;;;;;;1.06;92.69;100077.88;4934694;28;20061;-57
2021/01/26 02:17:46;;;;;;;41.45;21.50;;;;;;;1.08;92.60;100088.94;4937928;28;20058;-59
2021/01/26 02:20:28;;;;;;;37.47;21.33;;;;;;;0.97;93.33;100090.84;4932683;28;20066;-58
2021/01/26 02:23:04;;;;;;;38.63;20.83;;;;;;;0.96;92.92;100089.13;4934836;28;20051;-59
2021/01/26 02:25:52;;;;;;;42.20;22.70;;;;;;;0.69;93.53;100088.47;4932360;28;20064;-55
2021/01/26 02:28:43;;;;;;;42.03;21.73;;;;;;;0.91;93.52;100095.56;4932672;28;20059;-58
2021/01/26 02:31:21;;;;;;;41.92;22.08;;;;;;;0.96;93.16;100099.22;4932174;28;20143;-56
2021/01/26 02:34:13;;;;;;;39.85;21.35;;;;;;;0.83;92.99;100096.81;4934448;28;20504;-56
2021/01/26 02:37:05;;;;;;;38.90;20.70;;;;;;;0.77;93.45;100090.66;4932865;28;20254;-58
2021/01/26 02:39:38;;;;;;;42.03;22.40;;;;;;;0.87;92.86;100102.09;4931368;28;20059;-56
2021/01/26 02:42:24;;;;;;;39.38;20.33;;;;;;;0.69;93.25;100098.56;4932473;28;20062;-56
2021/01/26 02:45:11;;;;;;;42.13;20.73;;;;;;;0.98;92.85;100106.09;4934712;28;20051;-57
2021/01/26 02:47:56;;;;;;;38.88;20.95;;;;;;;1.00;91.82;100106.16;4932466;28;20050;-56
2021/01/26 02:50:23;;;;;;;40.50;21.73;;;;;;;0.93;92.04;100109.16;4932072;28;20051;-59
2021/01/26 02:53:19;;;;;;;41.60;21.48;;;;;;;0.94;92.58;100113.41;4934327;28;20092;-52
2021/01/26 02:56:30;;;;;;;36.50;19.65;;;;;;;0.79;92.18;100108.38;4933605;28;20056;-58
2021/01/26 02:59:25;;;;;;;36.22;20.42;;;;;;;0.82;92.47;100115.22;4934473;28;20074;-58
2021/01/26 03:02:07;;;;;;;43.03;21.50;;;;;;;0.89;92.48;100110.63;4933972;28;20050;-58
2021/01/26 03:04:58;;;;;;;41.17;20.50;;;;;;;0.76;92.62;100111.59;4932215;28;20435;-59
2021/01/26 03:07:29;;;;;;;37.10;19.60;;;;;;;0.97;91.63;100116.97;4931436;28;20527;-57
2021/01/26 03:10:01;;;;;;;36.13;19.83;;;;;;;0.68;93.04;100112.81;4934686;28;20055;-58
2021/01/26 03:12:33;;;;;;;31.80;18.33;;;;;;;0.87;91.24;100118.88;4935890;28;20061;-59
2021/01/26 03:15:12;;;;;;;33.00;19.75;;;;;;;0.70;91.38;100111.25;4931728;28;20100;-57
2021/01/26 03:17:46;;;;;;;36.33;19.85;;;;;;;0.36;92.96;100113.53;4931916;28;20051;-55
2021/01/26 03:20:27;;;;;;;34.92;18.58;;;;;;;0.70;92.13;100113.78;4937463;28;20055;-57
2021/01/26 03:22:56;;;;;;;36.53;20.70;;;;;;;0.60;92.08;100119.09;4934200;28;20057;-58
2021/01/26 03:25:26;;;;;;;36.80;19.38;;;;;;;0.65;91.43;100122.75;4931581;28;20048;-55
2021/01/26 03:27:59;;;;;;;35.28;19.10;;;;;;;0.63;91.56;100119.25;4933500;28;20054;-59
2021/01/26 03:30:31;;;;;;;33.78;20.33;;;;;;;0.51;91.63;100121.09;4930741;28;20039;-52
2021/01/26 03:33:07;;;;;;;37.50;18.85;;;;;;;0.57;91.88;100118.91;4948325;28;20051;-59
2021/01/26 03:35:34;;;;;;;36.20;19.90;;;;;;;0.43;92.22;100123.19;4931714;28;20062;-57
2021/01/26 03:38:12;;;;;;;37.88;20.20;;;;;;;0.34;92.66;100126.81;4933721;28;20121;-56
2021/01/26 03:40:38;;;;;;;36.65;19.50;;;;;;;0.49;92.55;100127.69;4932098;28;20043;-55
2021/01/26 03:43:06;;;;;;;39.47;20.08;;;;;;;0.47;91.25;100124.22;4933052;28;20055;-57
2021/01/26 03:45:34;;;;;;;33.65;19.13;;;;;;;0.33;91.86;100122.59;4930938;28;20054;-53
2021/01/26 03:48:38;;;;;;;41.47;21.63;;;;;;;0.13;92.71;100132.34;4933487;28;20054;-54
2021/01/26 03:51:11;;;;;;;40.08;21.13;;;;;;;0.12;92.66;100130.63;4930384;28;20088;-58
2021/01/26 03:54:07;;;;;;;36.80;19.73;;;;;;;0.05;93.55;100133.56;4931819;28;20076;-57
2021/01/26 03:57:02;;;;;;;37.50;21.23;;;;;;;-0.03;93.20;100133.13;4928150;28;20095;-57
2021/01/26 03:59:43;;;;;;;42.65;21.13;;;;;;;0.01;93.43;100136.69;4930883;28;20047;-58
2021/01/26 04:02:46;;;;;;;39.30;21.08;;;;;;;-0.01;93.28;100139.09;4930967;28;20077;-55
2021/01/26 04:05:33;;;;;;;37.00;21.05;;;;;;;-0.09;93.71;100135.28;4935272;28;20055;-56
2021/01/26 04:08:09;;;;;;;44.13;21.85;;;;;;;-0.26;94.33;100136.78;4930504;28;20052;-58
2021/01/26 04:10:41;;;;;;;46.05;23.38;;;;;;;-0.20;94.31;100133.75;4931005;28;20048;-57
2021/01/26 04:13:12;;;;;;;42.33;21.30;;;;;;;-0.19;94.07;100129.59;4932268;28;20051;-58
2021/01/26 04:15:49;;;;;;;43.53;22.80;;;;;;;-0.22;94.17;100132.81;4931246;28;20051;-55
2021/01/26 04:18:21;;;;;;;43.15;21.77;;;;;;;-0.39;95.09;100134.31;4930847;28;20552;-56
2021/01/26 04:20:49;;;;;;;42.72;22.55;;;;;;;-0.37;95.04;100131.88;4932437;28;20047;-58
2021/01/26 04:23:16;;;;;;;43.05;23.23;;;;;;;-0.30;94.39;100132.34;4933767;28;20051;-60
2021/01/26 04:25:46;;;;;;;49.45;22.88;;;;;;;-0.45;94.85;100128.06;4938183;28;20055;-58
2021/01/26 04:28:33;;;;;;;45.40;24.15;;;;;;;-0.40;94.87;100130.06;4935773;28;20063;-55
2021/01/26 04:31:01;;;;;;;48.38;23.55;;;;;;;-0.58;95.00;100123.94;4935803;28;20729;-57
2021/01/26 04:33:28;;;;;;;44.67;23.15;;;;;;;-0.62;95.74;100130.41;4932140;28;20075;-59
2021/01/26 04:35:55;;;;;;;46.95;24.38;;;;;;;-0.62;95.73;100135.44;4934620;28;20059;-55
2021/01/26 04:38:22;;;;;;;55.30;25.73;;;;;;;-0.80;96.31;100129.28;4932686;28;20692;-56
2021/01/26 04:40:50;;;;;;;49.00;25.50;;;;;;;-0.74;96.46;100139.69;4933991;28;20057;-59
2021/01/26 04:43:40;;;;;;;45.72;24.05;;;;;;;-0.74;96.63;100137.19;4932246;28;20797;-57
2021/01/26 04:46:29;;;;;;;55.30;26.45;;;;;;;-0.97;96.92;100132.38;4931740;28;20079;-58
2021/01/26 04:49:14;;;;;;;50.92;25.13;;;;;;;-0.84;96.64;100138.28;4935239;28;20075;-56
2021/01/26 04:52:03;;;;;;;50.13;24.92;;;;;;;-0.71;96.02;100141.56;4933060;28;20067;-59
2021/01/26 04:54:44;;;;;;;47.25;24.60;;;;;;;-0.88;96.78;100137.97;4931766;28;20050;-56
2021/01/26 04:57:35;;;;;;;49.20;24.77;;;;;;;-0.82;96.23;100139.25;4932012;28;20066;-54
2021/01/26 05:00:49;;;;;;;50.20;25.02;;;;;;;-0.98;96.43;100136.56;4932552;28;20069;-58
2021/01/26 05:03:29;;;;;;;46.45;24.17;;;;;;;-0.84;96.07;100132.38;4924319;28;20047;-58
2021/01/26 05:06:01;;;;;;;51.05;23.80;;;;;;;-0.94;96.37;100130.09;4944132;28;20055;-57
2021/01/26 05:08:37;;;;;;;50.70;25.45;;;;;;;-0.95;96.63;100140.91;4939367;28;20044;-55
2021/01/26 05:11:15;;;;;;;55.15;25.67;;;;;;;-1.12;96.96;100134.81;4936128;28;20055;-55
2021/01/26 05:13:46;;;;;;;50.75;24.55;;;;;;;-1.06;96.87;100136.09;4937558;28;20062;-57
2021/01/26 05:16:48;;;;;;;46.20;23.95;;;;;;;-1.14;97.01;100137.25;4936930;28;20051;-53
2021/01/26 05:19:20;;;;;;;43.28;23.15;;;;;;;-1.04;96.43;100143.72;4934476;28;20142;-55
2021/01/26 05:21:53;;;;;;;46.67;24.00;;;;;;;-1.14;97.00;100147.28;4936053;28;20496;-52
2021/01/26 05:24:39;;;;;;;48.00;23.30;;;;;;;-1.14;96.73;100142.28;4936093;28;20047;-59
2021/01/26 05:27:07;;;;;;;46.78;23.88;;;;;;;-1.20;97.16;100141.00;4935935;28;20057;-54
2021/01/26 05:29:35;;;;;;;42.58;22.23;;;;;;;-1.26;97.04;100138.09;4950492;28;20598;-56
2021/01/26 05:32:04;;;;;;;48.88;24.38;;;;;;;-1.54;98.16;100132.19;4940660;28;20059;-55
2021/01/26 05:34:34;;;;;;;44.05;21.23;;;;;;;-1.33;98.07;100140.25;4935922;28;20074;-56
2021/01/26 05:37:04;;;;;;;49.55;23.70;;;;;;;-1.34;97.68;100132.59;4941730;28;20559;-58
2021/01/26 05:39:37;;;;;;;45.08;23.25;;;;;;;-1.37;97.84;100138.31;4939945;28;20055;-58
2021/01/26 05:42:04;;;;;;;48.30;23.45;;;;;;;-1.44;97.67;100137.78;4945191;28;20047;-55
2021/01/26 05:44:34;;;;;;;47.60;22.48;;;;;;;-1.41;97.49;100146.41;4945860;28;20323;-54
2021/01/26 05:47:25;;;;;;;44.00;21.95;;;;;;;-1.37;97.44;100147.47;4946954;28;20047;-50
2021/01/26 05:49:52;;;;;;;46.33;22.00;;;;;;;-1.47;97.10;100153.56;4948912;28;20051;-56
2021/01/26 05:52:21;;;;;;;39.28;20.77;;;;;;;-1.46;97.16;100151.91;4944876;28;20047;-57
2021/01/26 05:54:53;;;;;;;37.92;21.75;;;;;;;-1.47;96.85;100151.03;4943625;28;20051;-55
2021/01/26 05:57:29;;;;;;;39.95;20.65;;;;;;;-1.56;96.78;100152.97;4943817;28;20055;-55
2021/01/26 06:00:19;;;;;;;47.60;21.80;;;;;;;-1.54;97.07;100153.91;4943443;28;20051;-57
2021/01/26 06:02:46;;;;;;;39.55;20.48;;;;;;;-1.59;97.07;100157.78;4943747;28;20884;-56
2021/01/26 06:05:19;;;;;;;39.05;20.15;;;;;;;-1.60;97.05;100149.38;4941388;28;20043;-56
2021/01/26 06:08:12;;;;;;;40.63;21.90;;;;;;;-1.69;96.45;100145.41;4943281;28;20051;-56
2021/01/26 06:10:42;;;;;;;36.60;20.20;;;;;;;-1.65;96.63;100152.34;4943519;28;20045;-52
2021/01/26 06:13:09;;;;;;;42.42;21.58;;;;;;;-1.77;96.97;100149.91;4942021;28;20047;-55
2021/01/26 06:15:39;;;;;;;38.08;21.05;;;;;;;-1.64;96.90;100152.44;4942586;28;20047;-57
2021/01/26 06:18:17;;;;;;;42.38;20.85;;;;;;;-1.68;96.59;100158.03;4941374;28;20054;-56
2021/01/26 06:21:05;;;;;;;41.80;20.58;;;;;;;-1.70;96.45;100163.75;4946598;28;20047;-56
2021/01/26 06:23:35;;;;;;;39.67;20.00;;;;;;;-1.74;96.47;100170.19;4945550;28;20043;-54
2021/01/26 06:26:08;;;;;;;36.67;20.02;;;;;;;-1.77;96.59;100167.47;4945739;28;20095;-54
2021/01/26 06:28:58;;;;;;;39.00;21.10;;;;;;;-1.76;96.44;100173.34;4946409;28;20078;-56
2021/01/26 06:31:33;;;;;;;39.38;20.15;;;;;;;-1.76;96.49;100174.22;4939529;28;20054;-53
2021/01/26 06:34:26;;;;;;;38.53;20.10;;;;;;;-1.71;96.64;100177.03;4946341;28;20055;-55
2021/01/26 06:37:23;;;;;;;38.05;20.85;;;;;;;-1.84;97.56;100178.75;4947516;28;20746;-52
2021/01/26 06:40:05;;;;;;;38.22;20.35;;;;;;;-1.77;96.96;100175.00;4942072;28;20039;-57
2021/01/26 06:42:55;;;;;;;44.13;21.63;;;;;;;-1.81;96.54;100176.44;4945300;28;20047;-59
2021/01/26 06:45:33;;;;;;;39.42;21.33;;;;;;;-1.80;96.28;100174.81;4946010;28;20645;-56
2021/01/26 06:48:23;;;;;;;38.78;20.38;;;;;;;-1.81;96.93;100181.44;4951912;28;20058;-58
2021/01/26 06:51:14;;;;;;;44.95;21.17;;;;;;;-1.60;96.24;100184.50;4941728;28;20122;-51
2021/01/26 06:53:41;;;;;;;44.65;22.95;;;;;;;-1.84;95.67;100175.38;4943810;28;20051;-54
2021/01/26 06:56:25;;;;;;;46.17;22.45;;;;;;;-1.69;95.65;100178.03;4946285;28;20051;-54
2021/01/26 06:59:22;;;;;;;42.10;21.30;;;;;;;-1.66;95.46;100186.63;4938947;28;20048;-51
2021/01/26 07:02:27;;;;;;;43.03;22.85;;;;;;;-1.64;96.31;100190.09;4949742;28;20046;-49
2021/01/26 07:05:18;;;;;;;40.80;22.23;;;;;;;-1.81;96.21;100181.44;4946411;28;20587;-54
2021/01/26 07:08:03;;;;;;;43.92;23.13;;;;;;;-1.57;96.42;100189.75;4947363;28;20066;-50
2021/01/26 07:10:48;;;;;;;40.83;21.65;;;;;;;-1.59;95.62;100190.41;4944942;28;20055;-55
2021/01/26 07:13:24;;;;;;;43.58;21.92;;;;;;;-1.41;95.16;100184.06;4938335;28;20717;-51
2021/01/26 07:16:22;;;;;;;39.17;21.67;;;;;;;-1.30;94.37;100184.75;4940694;28;20054;-52
2021/01/26 07:19:21;;;;;;;34.83;19.58;;;;;;;-1.29;94.19;100184.88;4942898;28;20047;-55
2021/01/26 07:22:18;;;;;;;37.58;20.55;;;;;;;-1.18;93.78;100189.72;4942373;28;20043;-48
2021/01/26 07:25:08;;;;;;;38.45;20.63;;;;;;;-1.19;93.58;100186.31;4942062;28;20530;-49
2021/01/26 07:27:57;;;;;;;39.17;20.67;;;;;;;-1.14;94.00;100182.47;4956912;28;20039;-49
2021/01/26 07:30:28;;;;;;;42.95;22.85;;;;;;;-1.24;94.53;100182.66;4944225;28;20043;-54
2021/01/26 07:33:28;;;;;;;42.00;21.65;;;;;;;-1.17;94.14;100191.44;4948414;28;20050;-54
2021/01/26 07:36:17;;;;;;;40.15;21.55;;;;;;;-1.15;93.41;100190.78;4935331;28;20143;-55
2021/01/26 07:39:02;;;;;;;46.83;22.52;;;;;;;-1.10;93.25;100193.59;4941977;28;20044;-50
2021/01/26 07:41:58;;;;;;;44.33;22.17;;;;;;;-1.29;94.37;100192.41;4948499;28;20047;-54
2021/01/26 07:44:48;;;;;;;47.35;25.33;;;;;;;-1.30;94.81;100189.78;4930519;28;20047;-56
2021/01/26 07:47:23;;;;;;;47.13;24.08;;;;;;;-1.24;93.73;100194.34;4941628;28;20048;-53
2021/01/26 07:50:04;;;;;;;41.63;21.83;;;;;;;-1.31;93.55;100201.47;4934970;28;20547;-53
2021/01/26 07:52:33;;;;;;;42.97;21.60;;;;;;;-1.07;93.74;100202.16;4932631;28;20047;-54
2021/01/26 07:55:07;;;;;;;44.20;23.02;;;;;;;-1.21;94.17;100195.38;4934620;28;20536;-54
2021/01/26 07:57:43;;;;;;;46.13;22.13;;;;;;;-0.96;93.50;100207.88;4945744;28;20054;-54
2021/01/26 08:00:12;;;;;;;39.80;22.75;;;;;;;-1.02;93.44;100217.53;4948302;28;20058;-59
2021/01/26 08:02:49;;;;;;;46.08;24.15;;;;;;;-1.07;93.76;100214.72;4944982;28;20047;-53
2021/01/26 08:05:36;;;;;;;43.95;22.67;;;;;;;-0.85;92.81;100214.44;4940066;28;20081;-56
2021/01/26 08:08:23;;;;;;;46.22;24.13;;;;;;;-0.79;92.83;100219.88;4945131;28;20040;-50
2021/01/26 08:11:13;;;;;;;47.40;23.27;;;;;;;-0.71;92.07;100224.50;4950376;28;20125;-56
2021/01/26 08:13:55;;;;;;;47.20;24.95;;;;;;;-0.61;92.21;100225.16;4944901;28;20420;-57
2021/01/26 08:16:31;;;;;;;44.78;22.80;;;;;;;-0.60;91.99;100224.41;4951906;28;20062;-55
2021/01/26 08:19:00;;;;;;;43.33;24.17;;;;;;;-0.36;90.70;100235.13;4948864;28;20551;-56
2021/01/26 08:21:33;;;;;;;39.40;22.38;;;;;;;-0.28;91.11;100233.94;4953485;28;20050;-51
2021/01/26 08:24:22;;;;;;;38.38;22.23;;;;;;;-0.20;89.52;100238.56;4940572;28;20611;-53
2021/01/26 08:26:50;;;;;;;37.20;21.38;;;;;;;-0.20;89.81;100246.97;4945545;28;20150;-50
2021/01/26 08:29:38;;;;;;;41.30;22.60;;;;;;;-0.09;89.95;100248.53;4947868;28;20048;-58
2021/01/26 08:32:26;;;;;;;40.70;21.30;;;;;;;-0.08;89.61;100256.94;4937236;28;20396;-56
2021/01/26 08:35:05;;;;;;;42.67;23.45;;;;;;;-0.15;90.06;100260.69;4947140;28;20046;-58
2021/01/26 08:37:43;;;;;;;41.88;21.65;;;;;;;0.17;88.61;100252.59;4943796;28;20105;-53
2021/01/26 08:40:09;;;;;;;;;;;;;;;0.07;88.89;100256.97;4953635;28;20508;-53
2021/01/26 08:42:42;;;;;;;40.35;20.85;;;;;;;0.09;89.27;100253.75;4950616;28;20365;-49
2021/01/26 08:45:14;;;;;;;38.47;20.17;;;;;;;-0.02;89.79;100259.81;4944382;28;20056;-48
2021/01/26 08:47:57;;;;;;;38.85;21.90;;;;;;;0.09;88.96;100261.31;4946902;28;20059;-47
2021/01/26 08:50:34;;;;;;;41.25;22.77;;;;;;;0.33;88.44;100261.06;4948826;28;20058;-58
2021/01/26 08:53:21;;;;;;;39.35;22.75;;;;;;;-0.02;88.88;100257.28;4949578;28;20047;-57
2021/01/26 08:55:59;;;;;;;44.67;23.67;;;;;;;-0.20;91.22;100264.59;4950171;28;20049;-52
2021/01/26 08:58:51;;;;;;;40.58;22.52;;;;;;;0.27;89.57;100264.06;4942848;28;20075;-58
2021/01/26 09:01:24;;;;;;;40.63;23.55;;;;;;;-0.02;90.84;100267.38;4948322;28;20039;-51
2021/01/26 09:03:51;;;;;;;35.72;22.30;;;;;;;0.25;88.75;100261.47;4938323;28;20059;-56
2021/01/26 09:06:39;;;;;;;37.95;22.63;;;;;;;0.49;87.42;100263.69;4949099;28;20057;-55
2021/01/26 09:09:11;;;;;;;36.00;21.00;;;;;;;0.66;87.23;100262.19;4942572;28;20487;-57
2021/01/26 09:11:58;;;;;;;40.45;22.38;;;;;;;0.81;86.94;100267.22;4947534;28;20054;-57
2021/01/26 09:14:44;;;;;;;37.80;23.10;;;;;;;0.41;88.55;100264.88;4953778;28;20815;-51
2021/01/26 09:17:21;;;;;;;36.60;21.70;;;;;;;0.57;87.65;100279.28;4952999;28;20133;-52
2021/01/26 09:19:55;;;;;;;40.78;23.42;;;;;;;0.74;88.08;100274.44;4953861;28;20507;-57
2021/01/26 09:22:26;;;;;;;39.38;22.10;;;;;;;1.12;87.43;100284.97;4956641;28;20043;-54
2021/01/26 09:25:24;;;;;;;37.20;21.15;;;;;;;1.66;82.82;100277.03;4958890;28;20051;-58
2021/01/26 09:28:06;;;;;;;34.33;21.90;;;;;;;2.38;80.39;100285.06;4943605;28;20078;-51
2021/01/26 09:30:34;;;;;;;37.83;20.15;;;;;;;2.08;80.30;100287.75;4956306;28;20118;-47
2021/01/26 09:33:19;;;;;;;35.47;20.65;;;;;;;2.06;80.12;100284.25;4946102;28;20517;-57
2021/01/26 09:35:52;;;;;;;34.70;20.35;;;;;;;2.11;81.79;100281.97;4949216;28;20502;-57
2021/01/26 09:38:45;;;;;;;33.63;19.98;;;;;;;2.05;80.93;100290.09;4951117;28;20063;-48
2021/01/26 09:41:25;;;;;;;30.73;19.67;;;;;;;2.30;80.98;100288.03;4949228;28;20047;-49
2021/01/26 09:44:08;;;;;;;33.58;19.35;;;;;;;2.36;79.37;100294.19;4948561;28;20050;-51
2021/01/26 09:46:41;;;;;;;32.85;19.98;;;;;;;2.23;80.73;100295.25;4948656;28;20151;-46
2021/01/26 09:49:20;;;;;;;31.90;20.42;;;;;;;2.65;79.30;100291.53;4944095;28;20053;-51
2021/01/26 09:51:50;;;;;;;33.80;19.60;;;;;;;2.50;79.35;100298.34;4937240;28;20059;-51
2021/01/26 09:54:25;;;;;;;35.75;21.00;;;;;;;2.28;80.00;100299.75;4936529;28;20427;-50
2021/01/26 09:56:53;;;;;;;30.17;18.92;;;;;;;2.11;80.84;100307.22;4936076;28;20527;-53
2021/01/26 09:59:21;;;;;;;33.00;20.40;;;;;;;2.30;80.10;100300.69;4937888;28;20056;-58
2021/01/26 10:01:49;;;;;;;34.42;18.98;;;;;;;2.64;79.62;100311.69;4943789;28;20052;-57
2021/01/26 10:04:18;;;;;;;31.88;18.40;;;;;;;3.01;77.97;100309.34;4939521;28;20125;-54
2021/01/26 10:06:47;;;;;;;26.67;17.60;;;;;;;3.35;76.20;100306.78;4947539;28;20043;-52
2021/01/26 10:09:33;;;;;;;25.42;16.35;;;;;;;4.08;72.18;100310.22;4945513;28;20054;-55
2021/01/26 10:12:26;;;;;;;29.58;18.00;;;;;;;3.53;74.57;100314.41;4948770;28;20039;-56
2021/01/26 10:15:22;;;;;;;25.17;15.93;;;;;;;3.11;75.97;100315.72;4943142;28;20699;-50
2021/01/26 10:18:02;;;;;;;26.45;17.38;;;;;;;2.74;77.66;100304.63;4944524;28;20760;-54
2021/01/26 10:20:36;;;;;;;27.83;16.70;;;;;;;3.27;76.60;100303.88;4937323;28;20596;-54
2021/01/26 10:23:20;;;;;;;30.25;18.83;;;;;;;2.79;77.21;100302.34;4945935;28;20058;-59
2021/01/26 10:25:47;;;;;;;25.95;16.20;;;;;;;3.03;77.16;100308.59;4938426;28;20073;-60
2021/01/26 10:28:22;;;;;;;28.63;18.73;;;;;;;2.70;79.15;100311.97;4936969;28;20063;-58
2021/01/26 10:30:49;;;;;;;24.38;12.80;;;;;;;2.92;77.96;100311.41;4945906;28;20415;-56
2021/01/26 10:33:35;;;;;;;28.15;17.52;;;;;;;2.62;78.48;100305.66;4942607;28;20099;-54
2021/01/26 10:36:32;;;;;;;26.65;17.35;;;;;;;2.20;79.50;100317.81;4942239;28;20126;-53
2021/01/26 10:39:20;;;;;;;29.55;18.40;;;;;;;2.24;81.46;100315.53;4950048;28;20046;-53
2021/01/26 10:41:48;;;;;;;29.92;18.08;;;;;;;2.60;78.84;100307.25;4947167;28;20043;-57
2021/01/26 10:44:16;;;;;;;28.13;17.48;;;;;;;2.47;79.74;100315.84;4947651;28;20070;-52
2021/01/26 10:46:49;;;;;;;27.02;16.85;;;;;;;2.37;78.65;100316.19;4946145;28;20827;-57
2021/01/26 10:49:26;;;;;;;26.45;17.05;;;;;;;2.49;79.39;100319.31;4954041;28;20091;-58
2021/01/26 10:51:53;;;;;;;29.27;17.35;;;;;;;2.95;77.26;100316.59;4950548;28;20053;-59
2021/01/26 10:54:25;;;;;;;25.58;16.50;;;;;;;3.02;78.33;100314.47;4956092;28;20476;-53
2021/01/26 10:56:54;;;;;;;28.85;17.67;;;;;;;3.02;77.44;100317.00;4937855;28;20055;-56
2021/01/26 10:59:21;;;;;;;28.65;16.55;;;;;;;3.15;77.63;100326.06;4940779;28;20059;-51
2021/01/26 11:01:49;;;;;;;28.27;17.50;;;;;;;3.40;76.15;100320.53;4947922;28;20526;-54
2021/01/26 11:04:17;;;;;;;27.95;16.25;;;;;;;3.43;75.58;100328.28;4943249;28;20180;-58
2021/01/26 11:06:45;;;;;;;26.02;16.48;;;;;;;3.08;76.19;100315.56;4939294;28;20070;-59
2021/01/26 11:09:14;;;;;;;29.80;18.70;;;;;;;3.27;76.41;100321.59;4949031;28;20055;-55
2021/01/26 11:11:45;;;;;;;28.35;18.52;;;;;;;3.13;77.53;100325.09;4965210;28;20047;-55
2021/01/26 11:14:12;;;;;;;27.38;17.30;;;;;;;3.86;74.82;100325.22;4952551;28;20512;-58
2021/01/26 11:16:39;;;;;;;28.20;17.52;;;;;;;3.75;75.53;100324.75;4954408;28;20054;-53
2021/01/26 11:19:11;;;;;;;27.83;16.95;;;;;;;3.81;76.28;100321.63;4941975;28;20055;-57
2021/01/26 11:21:37;;;;;;;27.20;17.20;;;;;;;4.05;74.82;100321.88;4943628;28;20435;-59
2021/01/26 11:24:04;;;;;;;28.00;17.33;;;;;;;3.98;73.76;100322.41;4946239;28;20051;-53
2021/01/26 11:26:31;;;;;;;26.83;17.65;;;;;;;3.61;75.23;100317.31;4951953;28;20051;-54
2021/01/26 11:28:59;;;;;;;28.33;18.20;;;;;;;3.94;75.33;100321.41;4949768;28;20126;-58
2021/01/26 11:31:26;;;;;;;28.00;17.38;;;;;;;4.76;72.00;100321.69;4942324;28;20055;-54
2021/01/26 11:33:53;;;;;;;24.17;16.13;;;;;;;4.23;72.69;100320.19;4938013;28;20074;-58
2021/01/26 11:36:19;;;;;;;24.45;15.98;;;;;;;5.58;67.79;100320.81;4932853;28;20132;-57
2021/01/26 11:38:46;;;;;;;25.67;16.98;;;;;;;5.18;69.76;100321.75;4946404;28;20046;-58
2021/01/26 11:41:12;;;;;;;22.90;15.70;;;;;;;7.10;63.68;100327.25;4934310;28;20058;-56
2021/01/26 11:43:39;;;;;;;24.65;15.30;;;;;;;7.00;61.65;100325.22;4938544;28;20051;-59
2021/01/26 11:46:06;;;;;;;20.48;14.13;;;;;;;8.35;58.39;100320.97;4934665;28;20047;-58
2021/01/26 11:48:34;;;;;;;19.98;14.45;;;;;;;8.28;57.59;100320.78;4933870;28;20047;-58
2021/01/26 11:51:01;;;;;;;20.20;14.82;;;;;;;9.41;54.29;100318.69;4935273;28;20078;-57
2021/01/26 11:53:28;;;;;;;20.98;14.23;;;;;;;9.19;55.24;100332.63;4939090;28;20063;-57
2021/01/26 11:56:00;;;;;;;20.73;14.85;;;;;;;8.36;56.32;100317.63;4935407;28;20794;-59